sensor_id;sensor_type;location;lat;lon;timestamp;temperature;humidity
69084;SHT31;56185;48.526;9.044;2022-07-22T00:00:16;20.10;71.32
69084;SHT31;56185;48.526;9.044;2022-07-22T00:02:42;19.99;71.45
69084;SHT31;56185;48.526;9.044;2022-07-22T00:05:07;20.02;72.03
69084;SHT31;56185;48.526;9.044;2022-07-22T00:07:33;20.06;71.20
69084;SHT31;56185;48.526;9.044;2022-07-22T00:09:58;20.08;71.27
69084;SHT31;56185;48.526;9.044;2022-07-22T00:12:23;19.82;72.29
69084;SHT31;56185;48.526;9.044;2022-07-22T00:14:49;19.71;72.74
69084;SHT31;56185;48.526;9.044;2022-07-22T00:17:14;19.69;72.86
69084;SHT31;56185;48.526;9.044;2022-07-22T00:19:39;19.88;72.62
69084;SHT31;56185;48.526;9.044;2022-07-22T00:22:05;19.89;71.83
69084;SHT31;56185;48.526;9.044;2022-07-22T00:24:30;19.81;72.59
69084;SHT31;56185;48.526;9.044;2022-07-22T00:26:55;19.59;73.19
69084;SHT31;56185;48.526;9.044;2022-07-22T00:29:20;19.61;73.39
69084;SHT31;56185;48.526;9.044;2022-07-22T00:31:46;19.54;74.00
69084;SHT31;56185;48.526;9.044;2022-07-22T00:34:11;19.61;74.12
69084;SHT31;56185;48.526;9.044;2022-07-22T00:36:37;19.58;73.44
69084;SHT31;56185;48.526;9.044;2022-07-22T00:39:03;19.55;73.10
69084;SHT31;56185;48.526;9.044;2022-07-22T00:41:28;19.54;73.76
69084;SHT31;56185;48.526;9.044;2022-07-22T00:43:54;19.44;73.72
69084;SHT31;56185;48.526;9.044;2022-07-22T00:46:20;19.31;74.49
69084;SHT31;56185;48.526;9.044;2022-07-22T00:48:45;19.21;74.73
69084;SHT31;56185;48.526;9.044;2022-07-22T00:51:11;19.26;74.73
69084;SHT31;56185;48.526;9.044;2022-07-22T00:53:36;19.34;74.35
69084;SHT31;56185;48.526;9.044;2022-07-22T00:56:03;19.41;73.58
69084;SHT31;56185;48.526;9.044;2022-07-22T00:58:29;19.28;73.84
69084;SHT31;56185;48.526;9.044;2022-07-22T01:00:54;19.44;73.43
69084;SHT31;56185;48.526;9.044;2022-07-22T01:03:19;19.51;72.74
69084;SHT31;56185;48.526;9.044;2022-07-22T01:05:45;19.65;72.24
69084;SHT31;56185;48.526;9.044;2022-07-22T01:08:10;19.47;72.99
69084;SHT31;56185;48.526;9.044;2022-07-22T01:10:35;19.54;72.58
69084;SHT31;56185;48.526;9.044;2022-07-22T01:13:00;19.30;73.80
69084;SHT31;56185;48.526;9.044;2022-07-22T01:15:26;18.99;74.74
69084;SHT31;56185;48.526;9.044;2022-07-22T01:17:51;18.82;75.32
69084;SHT31;56185;48.526;9.044;2022-07-22T01:20:17;18.83;75.17
69084;SHT31;56185;48.526;9.044;2022-07-22T01:22:42;19.09;74.42
69084;SHT31;56185;48.526;9.044;2022-07-22T01:25:07;19.14;74.31
69084;SHT31;56185;48.526;9.044;2022-07-22T01:27:33;18.95;74.65
69084;SHT31;56185;48.526;9.044;2022-07-22T01:29:58;18.82;75.38
69084;SHT31;56185;48.526;9.044;2022-07-22T01:32:23;18.80;75.27
69084;SHT31;56185;48.526;9.044;2022-07-22T01:34:49;18.99;73.89
69084;SHT31;56185;48.526;9.044;2022-07-22T01:37:14;19.09;72.99
69084;SHT31;56185;48.526;9.044;2022-07-22T01:39:39;19.10;73.05
69084;SHT31;56185;48.526;9.044;2022-07-22T01:42:05;19.17;73.11
69084;SHT31;56185;48.526;9.044;2022-07-22T01:44:31;19.06;73.97
69084;SHT31;56185;48.526;9.044;2022-07-22T01:46:56;19.17;72.78
69084;SHT31;56185;48.526;9.044;2022-07-22T01:49:22;19.11;73.77
69084;SHT31;56185;48.526;9.044;2022-07-22T01:51:47;19.10;73.76
69084;SHT31;56185;48.526;9.044;2022-07-22T01:54:12;18.79;74.94
69084;SHT31;56185;48.526;9.044;2022-07-22T01:56:37;18.65;75.60
69084;SHT31;56185;48.526;9.044;2022-07-22T01:59:03;18.51;75.98
69084;SHT31;56185;48.526;9.044;2022-07-22T02:01:28;18.51;76.01
69084;SHT31;56185;48.526;9.044;2022-07-22T02:03:53;18.38;76.47
69084;SHT31;56185;48.526;9.044;2022-07-22T02:06:19;18.32;76.93
69084;SHT31;56185;48.526;9.044;2022-07-22T02:08:44;18.31;76.96
69084;SHT31;56185;48.526;9.044;2022-07-22T02:11:09;18.32;77.06
69084;SHT31;56185;48.526;9.044;2022-07-22T02:13:34;18.22;77.78
69084;SHT31;56185;48.526;9.044;2022-07-22T02:16:00;18.20;77.83
69084;SHT31;56185;48.526;9.044;2022-07-22T02:18:25;18.08;78.32
69084;SHT31;56185;48.526;9.044;2022-07-22T02:20:51;18.22;77.86
69084;SHT31;56185;48.526;9.044;2022-07-22T02:23:16;18.21;78.37
69084;SHT31;56185;48.526;9.044;2022-07-22T02:25:42;18.34;77.66
69084;SHT31;56185;48.526;9.044;2022-07-22T02:28:08;18.47;76.11
69084;SHT31;56185;48.526;9.044;2022-07-22T02:30:33;18.52;75.44
69084;SHT31;56185;48.526;9.044;2022-07-22T02:32:58;18.55;75.57
69084;SHT31;56185;48.526;9.044;2022-07-22T02:35:24;18.72;74.46
69084;SHT31;56185;48.526;9.044;2022-07-22T02:37:50;18.53;75.10
69084;SHT31;56185;48.526;9.044;2022-07-22T02:40:15;18.56;74.96
69084;SHT31;56185;48.526;9.044;2022-07-22T02:42:40;18.53;75.84
69084;SHT31;56185;48.526;9.044;2022-07-22T02:45:06;18.32;76.10
69084;SHT31;56185;48.526;9.044;2022-07-22T02:47:32;18.15;77.01
69084;SHT31;56185;48.526;9.044;2022-07-22T02:49:57;18.11;77.33
69084;SHT31;56185;48.526;9.044;2022-07-22T02:52:22;17.98;77.58
69084;SHT31;56185;48.526;9.044;2022-07-22T02:54:48;17.94;78.19
69084;SHT31;56185;48.526;9.044;2022-07-22T02:57:13;17.90;78.29
69084;SHT31;56185;48.526;9.044;2022-07-22T02:59:38;18.02;77.55
69084;SHT31;56185;48.526;9.044;2022-07-22T03:02:03;18.01;78.04
69084;SHT31;56185;48.526;9.044;2022-07-22T03:04:29;18.02;77.50
69084;SHT31;56185;48.526;9.044;2022-07-22T03:06:54;17.94;77.85
69084;SHT31;56185;48.526;9.044;2022-07-22T03:09:20;18.01;77.65
69084;SHT31;56185;48.526;9.044;2022-07-22T03:11:45;17.86;78.15
69084;SHT31;56185;48.526;9.044;2022-07-22T03:14:11;17.76;78.80
69084;SHT31;56185;48.526;9.044;2022-07-22T03:16:36;17.81;78.91
69084;SHT31;56185;48.526;9.044;2022-07-22T03:19:02;17.74;78.58
69084;SHT31;56185;48.526;9.044;2022-07-22T03:21:27;17.67;78.93
69084;SHT31;56185;48.526;9.044;2022-07-22T03:23:52;17.67;79.02
69084;SHT31;56185;48.526;9.044;2022-07-22T03:26:18;17.70;79.05
69084;SHT31;56185;48.526;9.044;2022-07-22T03:28:43;17.79;78.62
69084;SHT31;56185;48.526;9.044;2022-07-22T03:31:08;17.98;77.30
69084;SHT31;56185;48.526;9.044;2022-07-22T03:33:33;17.96;76.99
69084;SHT31;56185;48.526;9.044;2022-07-22T03:35:59;18.00;76.87
69084;SHT31;56185;48.526;9.044;2022-07-22T03:38:24;17.98;77.25
69084;SHT31;56185;48.526;9.044;2022-07-22T03:40:49;17.87;77.36
69084;SHT31;56185;48.526;9.044;2022-07-22T03:43:14;17.79;77.95
69084;SHT31;56185;48.526;9.044;2022-07-22T03:45:40;17.91;77.58
69084;SHT31;56185;48.526;9.044;2022-07-22T03:48:05;17.69;78.26
69084;SHT31;56185;48.526;9.044;2022-07-22T03:50:30;17.74;78.01
69084;SHT31;56185;48.526;9.044;2022-07-22T03:52:55;17.67;78.70
69084;SHT31;56185;48.526;9.044;2022-07-22T03:55:21;17.70;78.78
69084;SHT31;56185;48.526;9.044;2022-07-22T03:57:46;17.79;77.82
69084;SHT31;56185;48.526;9.044;2022-07-22T04:00:11;17.69;78.08
69084;SHT31;56185;48.526;9.044;2022-07-22T04:02:37;17.79;77.54
69084;SHT31;56185;48.526;9.044;2022-07-22T04:05:02;17.87;77.04
69084;SHT31;56185;48.526;9.044;2022-07-22T04:07:28;17.89;77.06
69084;SHT31;56185;48.526;9.044;2022-07-22T04:09:53;17.76;77.05
69084;SHT31;56185;48.526;9.044;2022-07-22T04:12:18;17.77;77.08
69084;SHT31;56185;48.526;9.044;2022-07-22T04:14:43;17.83;77.19
69084;SHT31;56185;48.526;9.044;2022-07-22T04:17:09;17.67;77.75
69084;SHT31;56185;48.526;9.044;2022-07-22T04:19:34;17.57;77.87
69084;SHT31;56185;48.526;9.044;2022-07-22T04:21:59;17.53;78.33
69084;SHT31;56185;48.526;9.044;2022-07-22T04:24:24;17.60;76.93
69084;SHT31;56185;48.526;9.044;2022-07-22T04:26:50;17.69;77.06
69084;SHT31;56185;48.526;9.044;2022-07-22T04:29:15;17.71;77.05
69084;SHT31;56185;48.526;9.044;2022-07-22T04:31:40;17.83;77.15
69084;SHT31;56185;48.526;9.044;2022-07-22T04:34:05;17.87;76.39
69084;SHT31;56185;48.526;9.044;2022-07-22T04:36:31;17.87;75.94
69084;SHT31;56185;48.526;9.044;2022-07-22T04:38:56;17.96;75.81
69084;SHT31;56185;48.526;9.044;2022-07-22T04:41:21;18.05;74.93
69084;SHT31;56185;48.526;9.044;2022-07-22T04:43:46;17.93;75.84
69084;SHT31;56185;48.526;9.044;2022-07-22T04:46:12;17.96;75.96
69084;SHT31;56185;48.526;9.044;2022-07-22T04:48:37;18.10;75.23
69084;SHT31;56185;48.526;9.044;2022-07-22T04:51:03;18.18;74.54
69084;SHT31;56185;48.526;9.044;2022-07-22T04:53:28;18.11;74.71
69084;SHT31;56185;48.526;9.044;2022-07-22T04:55:53;17.98;75.30
69084;SHT31;56185;48.526;9.044;2022-07-22T04:58:19;18.05;75.57
69084;SHT31;56185;48.526;9.044;2022-07-22T05:00:44;18.18;75.16
69084;SHT31;56185;48.526;9.044;2022-07-22T05:03:10;18.08;75.30
69084;SHT31;56185;48.526;9.044;2022-07-22T05:05:35;18.10;75.68
69084;SHT31;56185;48.526;9.044;2022-07-22T05:08:00;18.04;75.97
69084;SHT31;56185;48.526;9.044;2022-07-22T05:10:25;18.17;75.75
69084;SHT31;56185;48.526;9.044;2022-07-22T05:12:51;18.15;75.55
69084;SHT31;56185;48.526;9.044;2022-07-22T05:15:16;18.17;75.77
69084;SHT31;56185;48.526;9.044;2022-07-22T05:17:41;18.29;75.30
69084;SHT31;56185;48.526;9.044;2022-07-22T05:20:07;18.45;74.76
69084;SHT31;56185;48.526;9.044;2022-07-22T05:22:32;18.39;74.79
69084;SHT31;56185;48.526;9.044;2022-07-22T05:24:57;18.53;74.36
69084;SHT31;56185;48.526;9.044;2022-07-22T05:27:23;18.37;74.79
69084;SHT31;56185;48.526;9.044;2022-07-22T05:29:48;18.42;74.38
69084;SHT31;56185;48.526;9.044;2022-07-22T05:32:14;18.51;73.93
69084;SHT31;56185;48.526;9.044;2022-07-22T05:34:39;18.53;73.89
69084;SHT31;56185;48.526;9.044;2022-07-22T05:37:04;18.51;74.01
69084;SHT31;56185;48.526;9.044;2022-07-22T05:39:30;18.68;73.53
69084;SHT31;56185;48.526;9.044;2022-07-22T05:41:55;18.56;74.25
69084;SHT31;56185;48.526;9.044;2022-07-22T05:44:20;18.56;74.08
69084;SHT31;56185;48.526;9.044;2022-07-22T05:46:45;18.59;74.11
69084;SHT31;56185;48.526;9.044;2022-07-22T05:49:11;18.72;74.27
69084;SHT31;56185;48.526;9.044;2022-07-22T05:51:36;18.80;73.64
69084;SHT31;56185;48.526;9.044;2022-07-22T05:54:01;18.77;73.46
69084;SHT31;56185;48.526;9.044;2022-07-22T05:56:26;18.90;73.39
69084;SHT31;56185;48.526;9.044;2022-07-22T05:58:52;18.89;73.76
69084;SHT31;56185;48.526;9.044;2022-07-22T06:01:17;18.90;73.35
69084;SHT31;56185;48.526;9.044;2022-07-22T06:03:42;18.95;73.03
69084;SHT31;56185;48.526;9.044;2022-07-22T06:06:07;19.06;71.57
69084;SHT31;56185;48.526;9.044;2022-07-22T06:08:33;18.96;72.53
69084;SHT31;56185;48.526;9.044;2022-07-22T06:10:58;19.13;73.45
69084;SHT31;56185;48.526;9.044;2022-07-22T06:13:24;19.06;73.19
69084;SHT31;56185;48.526;9.044;2022-07-22T06:15:49;19.16;72.49
69084;SHT31;56185;48.526;9.044;2022-07-22T06:18:15;19.24;72.77
69084;SHT31;56185;48.526;9.044;2022-07-22T06:20:40;19.28;73.27
69084;SHT31;56185;48.526;9.044;2022-07-22T06:23:05;19.34;73.36
69084;SHT31;56185;48.526;9.044;2022-07-22T06:25:30;19.39;72.45
69084;SHT31;56185;48.526;9.044;2022-07-22T06:27:56;19.46;72.41
69084;SHT31;56185;48.526;9.044;2022-07-22T06:30:21;19.48;73.28
69084;SHT31;56185;48.526;9.044;2022-07-22T06:32:46;19.55;73.33
69084;SHT31;56185;48.526;9.044;2022-07-22T06:35:12;19.53;73.22
69084;SHT31;56185;48.526;9.044;2022-07-22T06:37:37;19.65;73.07
69084;SHT31;56185;48.526;9.044;2022-07-22T06:40:03;19.75;72.82
69084;SHT31;56185;48.526;9.044;2022-07-22T06:42:28;19.81;71.88
69084;SHT31;56185;48.526;9.044;2022-07-22T06:44:54;19.79;72.09
69084;SHT31;56185;48.526;9.044;2022-07-22T06:47:19;19.86;72.20
69084;SHT31;56185;48.526;9.044;2022-07-22T06:49:44;19.90;72.68
69084;SHT31;56185;48.526;9.044;2022-07-22T06:52:09;20.00;72.50
69084;SHT31;56185;48.526;9.044;2022-07-22T06:54:35;20.05;71.78
69084;SHT31;56185;48.526;9.044;2022-07-22T06:57:00;20.05;71.91
69084;SHT31;56185;48.526;9.044;2022-07-22T06:59:25;20.15;71.46
69084;SHT31;56185;48.526;9.044;2022-07-22T07:01:50;20.23;71.62
69084;SHT31;56185;48.526;9.044;2022-07-22T07:04:16;20.33;71.10
69084;SHT31;56185;48.526;9.044;2022-07-22T07:06:41;20.40;70.79
69084;SHT31;56185;48.526;9.044;2022-07-22T07:09:06;20.43;71.45
69084;SHT31;56185;48.526;9.044;2022-07-22T07:11:31;20.46;70.96
69084;SHT31;56185;48.526;9.044;2022-07-22T07:13:57;20.54;70.73
69084;SHT31;56185;48.526;9.044;2022-07-22T07:16:22;20.66;69.38
69084;SHT31;56185;48.526;9.044;2022-07-22T07:18:47;20.68;69.53
69084;SHT31;56185;48.526;9.044;2022-07-22T07:21:13;20.91;69.52
69084;SHT31;56185;48.526;9.044;2022-07-22T07:23:38;21.05;68.94
69084;SHT31;56185;48.526;9.044;2022-07-22T07:26:03;21.06;69.17
69084;SHT31;56185;48.526;9.044;2022-07-22T07:28:28;21.19;69.16
69084;SHT31;56185;48.526;9.044;2022-07-22T07:30:54;21.24;68.68
69084;SHT31;56185;48.526;9.044;2022-07-22T07:33:19;21.31;69.40
69084;SHT31;56185;48.526;9.044;2022-07-22T07:35:44;21.50;68.71
69084;SHT31;56185;48.526;9.044;2022-07-22T07:38:09;21.67;68.09
69084;SHT31;56185;48.526;9.044;2022-07-22T07:40:35;21.70;67.84
69084;SHT31;56185;48.526;9.044;2022-07-22T07:43:01;21.80;67.14
69084;SHT31;56185;48.526;9.044;2022-07-22T07:45:26;21.97;66.97
69084;SHT31;56185;48.526;9.044;2022-07-22T07:47:51;22.04;67.46
69084;SHT31;56185;48.526;9.044;2022-07-22T07:50:16;22.15;66.90
69084;SHT31;56185;48.526;9.044;2022-07-22T07:52:43;22.20;66.72
69084;SHT31;56185;48.526;9.044;2022-07-22T07:55:09;22.28;66.20
69084;SHT31;56185;48.526;9.044;2022-07-22T07:57:35;22.40;66.79
69084;SHT31;56185;48.526;9.044;2022-07-22T08:00:03;22.44;65.44
69084;SHT31;56185;48.526;9.044;2022-07-22T08:02:29;22.52;65.75
69084;SHT31;56185;48.526;9.044;2022-07-22T08:04:55;22.59;64.69
69084;SHT31;56185;48.526;9.044;2022-07-22T08:07:20;22.72;65.13
69084;SHT31;56185;48.526;9.044;2022-07-22T08:09:45;22.85;65.19
69084;SHT31;56185;48.526;9.044;2022-07-22T08:12:11;22.86;65.50
69084;SHT31;56185;48.526;9.044;2022-07-22T08:14:36;22.95;64.71
69084;SHT31;56185;48.526;9.044;2022-07-22T08:17:01;23.10;63.38
69084;SHT31;56185;48.526;9.044;2022-07-22T08:19:27;23.16;63.57
69084;SHT31;56185;48.526;9.044;2022-07-22T08:21:52;23.28;63.82
69084;SHT31;56185;48.526;9.044;2022-07-22T08:24:17;23.39;62.06
69084;SHT31;56185;48.526;9.044;2022-07-22T08:26:43;23.47;62.04
69084;SHT31;56185;48.526;9.044;2022-07-22T08:29:08;23.60;62.29
69084;SHT31;56185;48.526;9.044;2022-07-22T08:31:33;23.75;60.70
69084;SHT31;56185;48.526;9.044;2022-07-22T08:33:58;23.91;60.56
69084;SHT31;56185;48.526;9.044;2022-07-22T08:36:24;24.05;60.27
69084;SHT31;56185;48.526;9.044;2022-07-22T08:38:49;24.16;60.18
69084;SHT31;56185;48.526;9.044;2022-07-22T08:41:14;24.29;60.10
69084;SHT31;56185;48.526;9.044;2022-07-22T08:43:40;24.47;59.31
69084;SHT31;56185;48.526;9.044;2022-07-22T08:46:06;24.52;59.07
69084;SHT31;56185;48.526;9.044;2022-07-22T08:48:31;24.52;57.44
69084;SHT31;56185;48.526;9.044;2022-07-22T08:50:56;24.66;56.17
69084;SHT31;56185;48.526;9.044;2022-07-22T08:53:22;24.78;57.05
69084;SHT31;56185;48.526;9.044;2022-07-22T08:55:48;24.87;56.24
69084;SHT31;56185;48.526;9.044;2022-07-22T08:58:15;24.99;54.06
69084;SHT31;56185;48.526;9.044;2022-07-22T09:00:41;25.05;55.43
69084;SHT31;56185;48.526;9.044;2022-07-22T09:03:22;25.11;56.91
69084;SHT31;56185;48.526;9.044;2022-07-22T09:05:49;25.38;55.64
69084;SHT31;56185;48.526;9.044;2022-07-22T09:08:15;25.48;54.61
69084;SHT31;56185;48.526;9.044;2022-07-22T09:10:40;25.50;54.26
69084;SHT31;56185;48.526;9.044;2022-07-22T09:13:09;25.61;54.87
69084;SHT31;56185;48.526;9.044;2022-07-22T09:15:36;25.73;54.68
69084;SHT31;56185;48.526;9.044;2022-07-22T09:18:03;25.85;54.02
69084;SHT31;56185;48.526;9.044;2022-07-22T09:20:29;25.98;55.21
69084;SHT31;56185;48.526;9.044;2022-07-22T09:22:55;26.12;52.78
69084;SHT31;56185;48.526;9.044;2022-07-22T09:25:34;26.18;52.71
69084;SHT31;56185;48.526;9.044;2022-07-22T09:30:33;26.33;51.41
69084;SHT31;56185;48.526;9.044;2022-07-22T09:32:58;26.43;52.68
69084;SHT31;56185;48.526;9.044;2022-07-22T09:35:24;26.34;52.10
69084;SHT31;56185;48.526;9.044;2022-07-22T09:38:01;26.44;51.62
69084;SHT31;56185;48.526;9.044;2022-07-22T09:40:29;26.59;52.11
69084;SHT31;56185;48.526;9.044;2022-07-22T09:43:07;26.64;52.68
69084;SHT31;56185;48.526;9.044;2022-07-22T09:45:33;26.79;52.43
69084;SHT31;56185;48.526;9.044;2022-07-22T09:48:00;26.84;52.79
69084;SHT31;56185;48.526;9.044;2022-07-22T09:50:33;27.00;51.49
69084;SHT31;56185;48.526;9.044;2022-07-22T09:53:00;27.12;50.43
69084;SHT31;56185;48.526;9.044;2022-07-22T09:55:27;27.16;49.98
69084;SHT31;56185;48.526;9.044;2022-07-22T09:57:54;27.10;49.89
69084;SHT31;56185;48.526;9.044;2022-07-22T10:00:22;27.09;49.94
69084;SHT31;56185;48.526;9.044;2022-07-22T10:03:08;27.24;49.07
69084;SHT31;56185;48.526;9.044;2022-07-22T10:05:38;27.36;50.78
69084;SHT31;56185;48.526;9.044;2022-07-22T10:08:06;27.47;50.54
69084;SHT31;56185;48.526;9.044;2022-07-22T10:10:33;27.53;48.53
69084;SHT31;56185;48.526;9.044;2022-07-22T10:13:00;27.57;50.08
69084;SHT31;56185;48.526;9.044;2022-07-22T10:15:26;27.68;48.65
69084;SHT31;56185;48.526;9.044;2022-07-22T10:17:54;27.76;49.36
69084;SHT31;56185;48.526;9.044;2022-07-22T10:20:25;27.92;49.77
69084;SHT31;56185;48.526;9.044;2022-07-22T10:23:11;28.06;47.37
69084;SHT31;56185;48.526;9.044;2022-07-22T10:25:53;28.13;47.66
69084;SHT31;56185;48.526;9.044;2022-07-22T10:28:24;28.22;46.85
69084;SHT31;56185;48.526;9.044;2022-07-22T10:30:50;28.25;47.81
69084;SHT31;56185;48.526;9.044;2022-07-22T10:33:20;28.36;46.14
69084;SHT31;56185;48.526;9.044;2022-07-22T10:35:53;28.38;46.68
69084;SHT31;56185;48.526;9.044;2022-07-22T10:38:19;28.52;48.03
69084;SHT31;56185;48.526;9.044;2022-07-22T10:41:02;28.59;45.21
69084;SHT31;56185;48.526;9.044;2022-07-22T10:43:44;28.67;46.08
69084;SHT31;56185;48.526;9.044;2022-07-22T10:46:10;28.77;45.97
69084;SHT31;56185;48.526;9.044;2022-07-22T10:53:44;28.94;44.98
69084;SHT31;56185;48.526;9.044;2022-07-22T10:56:20;29.10;45.98
69084;SHT31;56185;48.526;9.044;2022-07-22T10:58:48;29.06;44.69
69084;SHT31;56185;48.526;9.044;2022-07-22T11:01:15;29.22;45.12
69084;SHT31;56185;48.526;9.044;2022-07-22T11:03:43;29.37;45.10
69084;SHT31;56185;48.526;9.044;2022-07-22T11:08:38;29.54;44.19
69084;SHT31;56185;48.526;9.044;2022-07-22T11:11:03;29.63;43.60
69084;SHT31;56185;48.526;9.044;2022-07-22T11:13:33;29.82;43.23
69084;SHT31;56185;48.526;9.044;2022-07-22T11:16:17;29.96;41.92
69084;SHT31;56185;48.526;9.044;2022-07-22T11:18:57;30.02;41.48
69084;SHT31;56185;48.526;9.044;2022-07-22T11:21:25;30.00;42.43
69084;SHT31;56185;48.526;9.044;2022-07-22T11:23:53;30.06;41.95
69084;SHT31;56185;48.526;9.044;2022-07-22T11:26:46;30.21;41.95
69084;SHT31;56185;48.526;9.044;2022-07-22T11:29:29;30.19;41.23
69084;SHT31;56185;48.526;9.044;2022-07-22T11:31:58;30.17;41.06
69084;SHT31;56185;48.526;9.044;2022-07-22T11:34:24;30.24;41.88
69084;SHT31;56185;48.526;9.044;2022-07-22T11:36:53;30.44;41.29
69084;SHT31;56185;48.526;9.044;2022-07-22T11:39:25;30.47;41.08
69084;SHT31;56185;48.526;9.044;2022-07-22T11:41:51;30.43;40.55
69084;SHT31;56185;48.526;9.044;2022-07-22T11:44:19;30.56;41.62
69084;SHT31;56185;48.526;9.044;2022-07-22T11:46:50;30.56;40.42
69084;SHT31;56185;48.526;9.044;2022-07-22T11:49:21;30.67;39.96
69084;SHT31;56185;48.526;9.044;2022-07-22T11:51:47;30.74;40.31
69084;SHT31;56185;48.526;9.044;2022-07-22T11:54:12;30.74;39.94
69084;SHT31;56185;48.526;9.044;2022-07-22T11:56:41;30.82;40.11
69084;SHT31;56185;48.526;9.044;2022-07-22T11:59:12;30.99;38.49
69084;SHT31;56185;48.526;9.044;2022-07-22T12:01:48;31.05;39.58
69084;SHT31;56185;48.526;9.044;2022-07-22T12:04:16;31.09;39.98
69084;SHT31;56185;48.526;9.044;2022-07-22T12:06:43;31.14;40.44
69084;SHT31;56185;48.526;9.044;2022-07-22T12:09:13;31.16;39.37
69084;SHT31;56185;48.526;9.044;2022-07-22T12:11:42;31.15;39.16
69084;SHT31;56185;48.526;9.044;2022-07-22T12:14:10;31.12;38.33
69084;SHT31;56185;48.526;9.044;2022-07-22T12:16:36;31.18;38.94
69084;SHT31;56185;48.526;9.044;2022-07-22T12:21:30;31.37;38.20
69084;SHT31;56185;48.526;9.044;2022-07-22T12:24:02;31.46;38.76
69084;SHT31;56185;48.526;9.044;2022-07-22T12:26:40;31.53;38.06
69084;SHT31;56185;48.526;9.044;2022-07-22T12:31:49;31.60;38.81
69084;SHT31;56185;48.526;9.044;2022-07-22T12:34:15;31.73;38.26
69084;SHT31;56185;48.526;9.044;2022-07-22T12:36:45;31.94;39.17
69084;SHT31;56185;48.526;9.044;2022-07-22T12:39:18;31.91;37.70
69084;SHT31;56185;48.526;9.044;2022-07-22T12:41:49;32.01;37.12
69084;SHT31;56185;48.526;9.044;2022-07-22T12:44:23;32.14;37.49
69084;SHT31;56185;48.526;9.044;2022-07-22T12:46:52;32.12;38.32
69084;SHT31;56185;48.526;9.044;2022-07-22T12:49:24;32.32;36.76
69084;SHT31;56185;48.526;9.044;2022-07-22T12:52:11;32.42;37.32
69084;SHT31;56185;48.526;9.044;2022-07-22T12:54:38;32.42;36.05
69084;SHT31;56185;48.526;9.044;2022-07-22T12:57:04;32.45;36.37
69084;SHT31;56185;48.526;9.044;2022-07-22T12:59:30;32.51;37.08
69084;SHT31;56185;48.526;9.044;2022-07-22T13:01:55;32.65;36.85
69084;SHT31;56185;48.526;9.044;2022-07-22T13:04:21;32.43;36.60
69084;SHT31;56185;48.526;9.044;2022-07-22T13:06:46;32.71;37.72
69084;SHT31;56185;48.526;9.044;2022-07-22T13:09:12;32.86;36.38
69084;SHT31;56185;48.526;9.044;2022-07-22T13:11:37;32.83;36.74
69084;SHT31;56185;48.526;9.044;2022-07-22T13:14:02;32.99;36.02
69084;SHT31;56185;48.526;9.044;2022-07-22T13:16:28;33.11;35.09
69084;SHT31;56185;48.526;9.044;2022-07-22T13:18:53;33.23;34.42
69084;SHT31;56185;48.526;9.044;2022-07-22T13:21:18;33.16;34.91
69084;SHT31;56185;48.526;9.044;2022-07-22T13:23:43;32.98;35.21
69084;SHT31;56185;48.526;9.044;2022-07-22T13:26:09;33.11;35.53
69084;SHT31;56185;48.526;9.044;2022-07-22T13:28:35;33.06;34.46
69084;SHT31;56185;48.526;9.044;2022-07-22T13:31:00;33.19;34.84
69084;SHT31;56185;48.526;9.044;2022-07-22T13:33:25;33.40;35.06
69084;SHT31;56185;48.526;9.044;2022-07-22T13:35:51;33.53;34.68
69084;SHT31;56185;48.526;9.044;2022-07-22T13:38:16;33.69;34.13
69084;SHT31;56185;48.526;9.044;2022-07-22T13:40:42;33.88;32.84
69084;SHT31;56185;48.526;9.044;2022-07-22T13:43:08;33.99;32.56
69084;SHT31;56185;48.526;9.044;2022-07-22T13:45:33;34.04;32.61
69084;SHT31;56185;48.526;9.044;2022-07-22T13:47:58;33.95;33.44
69084;SHT31;56185;48.526;9.044;2022-07-22T13:50:24;34.01;33.67
69084;SHT31;56185;48.526;9.044;2022-07-22T13:52:49;34.10;32.47
69084;SHT31;56185;48.526;9.044;2022-07-22T13:55:16;33.99;33.32
69084;SHT31;56185;48.526;9.044;2022-07-22T13:57:48;34.19;33.27
69084;SHT31;56185;48.526;9.044;2022-07-22T14:00:13;34.06;33.26
69084;SHT31;56185;48.526;9.044;2022-07-22T14:02:39;34.16;32.75
69084;SHT31;56185;48.526;9.044;2022-07-22T14:05:04;34.23;32.96
69084;SHT31;56185;48.526;9.044;2022-07-22T14:07:30;34.20;32.45
69084;SHT31;56185;48.526;9.044;2022-07-22T14:09:55;34.23;32.35
69084;SHT31;56185;48.526;9.044;2022-07-22T14:12:23;34.22;32.97
69084;SHT31;56185;48.526;9.044;2022-07-22T14:14:49;34.22;32.24
69084;SHT31;56185;48.526;9.044;2022-07-22T14:17:14;34.28;32.62
69084;SHT31;56185;48.526;9.044;2022-07-22T14:19:42;34.22;33.58
69084;SHT31;56185;48.526;9.044;2022-07-22T14:22:08;34.25;33.17
69084;SHT31;56185;48.526;9.044;2022-07-22T14:24:33;34.29;33.22
69084;SHT31;56185;48.526;9.044;2022-07-22T14:26:58;34.20;34.13
69084;SHT31;56185;48.526;9.044;2022-07-22T14:29:23;34.35;33.54
69084;SHT31;56185;48.526;9.044;2022-07-22T14:31:49;34.50;33.51
69084;SHT31;56185;48.526;9.044;2022-07-22T14:34:15;34.55;33.56
69084;SHT31;56185;48.526;9.044;2022-07-22T14:36:40;34.49;32.79
69084;SHT31;56185;48.526;9.044;2022-07-22T14:39:05;34.45;32.91
69084;SHT31;56185;48.526;9.044;2022-07-22T14:41:31;34.36;32.19
69084;SHT31;56185;48.526;9.044;2022-07-22T14:43:56;34.39;33.28
69084;SHT31;56185;48.526;9.044;2022-07-22T14:46:21;34.40;32.44
69084;SHT31;56185;48.526;9.044;2022-07-22T14:48:47;34.47;32.95
69084;SHT31;56185;48.526;9.044;2022-07-22T14:51:12;34.42;32.00
69084;SHT31;56185;48.526;9.044;2022-07-22T14:53:37;34.36;31.81
69084;SHT31;56185;48.526;9.044;2022-07-22T14:56:02;34.53;32.83
69084;SHT31;56185;48.526;9.044;2022-07-22T14:58:28;34.52;32.53
69084;SHT31;56185;48.526;9.044;2022-07-22T15:00:53;34.57;32.13
69084;SHT31;56185;48.526;9.044;2022-07-22T15:03:18;34.68;32.75
69084;SHT31;56185;48.526;9.044;2022-07-22T15:05:44;34.67;32.19
69084;SHT31;56185;48.526;9.044;2022-07-22T15:08:09;34.59;31.71
69084;SHT31;56185;48.526;9.044;2022-07-22T15:10:35;34.68;32.60
69084;SHT31;56185;48.526;9.044;2022-07-22T15:13:01;34.56;32.00
69084;SHT31;56185;48.526;9.044;2022-07-22T15:15:27;34.64;33.11
69084;SHT31;56185;48.526;9.044;2022-07-22T15:17:52;34.70;31.39
69084;SHT31;56185;48.526;9.044;2022-07-22T15:20:17;34.56;32.44
69084;SHT31;56185;48.526;9.044;2022-07-22T15:22:43;34.61;33.09
69084;SHT31;56185;48.526;9.044;2022-07-22T15:25:08;34.53;33.13
69084;SHT31;56185;48.526;9.044;2022-07-22T15:27:34;34.70;33.05
69084;SHT31;56185;48.526;9.044;2022-07-22T15:29:59;34.74;31.83
69084;SHT31;56185;48.526;9.044;2022-07-22T15:32:24;34.66;32.28
69084;SHT31;56185;48.526;9.044;2022-07-22T15:34:49;34.67;32.80
69084;SHT31;56185;48.526;9.044;2022-07-22T15:37:15;34.73;32.74
69084;SHT31;56185;48.526;9.044;2022-07-22T15:39:40;34.68;31.72